Time;durP1;ratioP1;P1;durP2;ratioP2;P2;SDS_P1;SDS_P2;PMS_P1;PMS_P2;Temp;Humidity;BMP_temperature;BMP_pressure;BME280_temperature;BME280_humidity;BME280_pressure;Samples;Min_cycle;Max_cycle;Signal;HPM_P1;HPM_P2
2022/09/27 00:03:16;;;;;;;2.65;1.30;;;;;;;10.04;100.00;94996.47;10407241;27;97751;-83
2022/09/27 00:08:19;;;;;;;1.85;1.30;;;;;;;10.02;100.00;95001.06;10420473;27;96787;-84
2022/09/27 00:13:21;;;;;;;1.30;1.10;;;;;;;10.06;100.00;94999.72;10429898;27;96804;-83
2022/09/27 00:18:26;;;;;;;1.75;1.30;;;;;;;10.14;100.00;94997.06;10407831;27;97170;-83
2022/09/27 00:23:29;;;;;;;2.13;1.07;;;;;;;10.20;100.00;94988.53;10430214;27;98405;-83
2022/09/27 00:28:32;;;;;;;1.00;0.90;;;;;;;10.18;100.00;94987.91;10414274;28;96866;-83
2022/09/27 00:33:36;;;;;;;1.65;1.20;;;;;;;10.22;100.00;94991.78;10390394;27;98516;-83
2022/09/27 00:38:40;;;;;;;1.65;1.00;;;;;;;10.23;100.00;94990.81;10385423;27;97577;-83
2022/09/27 00:43:46;;;;;;;1.23;1.08;;;;;;;10.25;100.00;94977.56;10396530;28;98119;-83
2022/09/27 00:49:00;;;;;;;3.55;1.30;;;;;;;10.24;100.00;94981.97;10391746;27;98756;-82
2022/09/27 00:54:03;;;;;;;1.50;1.13;;;;;;;10.19;100.00;94988.72;10440247;27;96876;-82
2022/09/27 00:59:12;;;;;;;1.23;1.05;;;;;;;10.11;100.00;94971.31;10419543;28;96907;-83
2022/09/27 01:04:21;;;;;;;2.95;1.00;;;;;;;10.15;100.00;94974.38;10391382;27;96810;-83
2022/09/27 01:09:24;;;;;;;1.13;0.98;;;;;;;10.10;100.00;94971.50;10401886;27;96954;-83
2022/09/27 01:14:41;;;;;;;1.33;0.80;;;;;;;10.06;100.00;94973.63;10422825;27;97752;-83
2022/09/27 01:20:17;;;;;;;1.08;0.65;;;;;;;10.00;100.00;94980.38;10411124;27;96921;-83
2022/09/27 01:25:32;;;;;;;;;;;;;;;9.95;100.00;94989.72;10230646;28;99176;-83
2022/09/27 01:30:43;;;;;;;1.40;1.13;;;;;;;9.98;100.00;94989.38;10248983;28;97173;-83
2022/09/27 01:36:00;;;;;;;1.38;1.00;;;;;;;9.99;100.00;94976.16;10249754;28;98931;-83
2022/09/27 01:41:08;;;;;;;2.55;0.88;;;;;;;10.12;100.00;94972.94;10221932;28;97162;-83
2022/09/27 01:46:18;;;;;;;1.42;0.95;;;;;;;10.01;100.00;94962.94;10223091;28;98211;-83
2022/09/27 01:51:25;;;;;;;1.17;0.73;;;;;;;10.07;100.00;94970.06;10254948;28;97170;-83
2022/09/27 01:56:33;;;;;;;1.13;0.82;;;;;;;10.21;100.00;94969.25;10249544;28;97263;-83
2022/09/27 02:01:39;;;;;;;2.10;1.00;;;;;;;10.26;100.00;94968.75;10334552;27;97835;-83
2022/09/27 02:06:46;;;;;;;1.92;0.95;;;;;;;10.30;100.00;94974.41;10425167;27;96665;-83
2022/09/27 02:11:54;;;;;;;4.20;0.70;;;;;;;10.17;100.00;94988.88;10419946;27;97702;-83
2022/09/27 02:17:04;;;;;;;2.33;0.88;;;;;;;10.10;100.00;94990.56;10422535;27;97585;-83
2022/09/27 02:22:25;;;;;;;2.00;0.70;;;;;;;10.15;100.00;94997.88;10425308;27;97350;-83
2022/09/27 02:27:31;;;;;;;1.15;0.90;;;;;;;10.19;100.00;94994.72;10420009;27;97343;-83
2022/09/27 02:32:36;;;;;;;2.28;0.80;;;;;;;10.24;100.00;94996.81;10416592;27;96870;-83
2022/09/27 02:37:39;;;;;;;1.75;0.65;;;;;;;10.22;100.00;94999.59;10388060;27;96977;-83
2022/09/27 02:42:44;;;;;;;2.45;0.80;;;;;;;10.23;100.00;95005.63;10400830;28;96786;-83
2022/09/27 02:48:01;;;;;;;2.72;0.90;;;;;;;10.23;100.00;95005.63;10393430;27;97716;-83
2022/09/27 02:53:10;;;;;;;1.83;1.00;;;;;;;10.30;100.00;95009.16;10417692;27;96784;-83
2022/09/27 02:58:25;;;;;;;3.08;1.20;;;;;;;10.36;100.00;95020.72;10414510;27;97828;-83
2022/09/27 03:03:37;;;;;;;1.63;0.90;;;;;;;10.30;100.00;95022.22;10383006;27;97091;-83
2022/09/27 03:08:40;;;;;;;1.50;1.02;;;;;;;10.24;100.00;95034.16;10433453;27;96805;-83
2022/09/27 03:13:44;;;;;;;2.08;0.73;;;;;;;10.26;100.00;95028.78;10422336;28;97471;-83
2022/09/27 03:19:08;;;;;;;2.25;1.10;;;;;;;10.28;100.00;95039.03;10393060;27;96807;-83
2022/09/27 03:24:11;;;;;;;3.37;1.17;;;;;;;10.34;100.00;95036.56;10419662;28;97375;-83
2022/09/27 03:29:14;;;;;;;1.85;1.02;;;;;;;10.46;100.00;95033.50;10401264;27;96880;-83
2022/09/27 03:34:18;;;;;;;4.93;1.23;;;;;;;10.54;100.00;95034.25;10385799;27;96953;-83
2022/09/27 03:39:21;;;;;;;1.48;0.80;;;;;;;10.60;100.00;95048.41;10408249;27;97041;-84
2022/09/27 03:44:24;;;;;;;4.80;1.17;;;;;;;10.49;100.00;95049.63;10404903;27;98331;-84
2022/09/27 03:49:28;;;;;;;2.50;1.13;;;;;;;10.46;100.00;95044.78;10392239;27;96966;-84
2022/09/27 03:54:31;;;;;;;2.92;1.00;;;;;;;10.48;100.00;95055.84;10412238;27;99048;-83
2022/09/27 03:59:34;;;;;;;3.95;1.13;;;;;;;10.38;100.00;95039.63;10408027;27;97773;-83
2022/09/27 04:04:38;;;;;;;2.47;0.90;;;;;;;10.18;100.00;95073.19;10394258;27;96762;-83
2022/09/27 04:09:41;;;;;;;3.35;0.90;;;;;;;10.12;100.00;95050.44;10394862;27;96782;-83
2022/09/27 04:14:46;;;;;;;3.50;1.23;;;;;;;10.07;100.00;95044.91;10396618;27;96950;-83
2022/09/27 04:19:51;;;;;;;6.78;1.40;;;;;;;10.01;100.00;95064.69;10425666;27;96741;-83
2022/09/27 04:24:53;;;;;;;4.33;1.10;;;;;;;9.97;100.00;95079.03;10421036;27;97096;-83
2022/09/27 04:29:56;;;;;;;5.25;1.20;;;;;;;9.98;100.00;95080.69;10385300;27;98434;-83
2022/09/27 04:40:21;;;;;;;3.22;1.10;;;;;;;10.10;100.00;95073.28;10403605;27;96879;-83
2022/09/27 04:45:24;;;;;;;1.60;0.93;;;;;;;10.17;100.00;95064.56;10406311;27;96879;-83
2022/09/27 04:50:28;;;;;;;3.28;0.80;;;;;;;10.15;100.00;95074.38;10396118;27;97722;-83
2022/09/27 04:55:36;;;;;;;3.00;1.00;;;;;;;9.98;100.00;95075.47;10406209;28;97213;-83
2022/09/27 05:00:39;;;;;;;5.00;1.20;;;;;;;9.93;100.00;95078.59;10420623;28;96795;-83
2022/09/27 05:05:43;;;;;;;3.50;1.10;;;;;;;9.92;100.00;95097.00;10418842;27;96834;-83
2022/09/27 05:10:46;;;;;;;1.48;0.88;;;;;;;9.88;100.00;95112.19;10412944;27;96875;-83
2022/09/27 05:15:48;;;;;;;1.58;0.70;;;;;;;9.91;100.00;95098.81;10380001;28;97635;-83
2022/09/27 05:20:53;;;;;;;3.20;1.02;;;;;;;9.97;100.00;95097.31;10391141;27;96990;-83
2022/09/27 05:25:56;;;;;;;2.20;0.97;;;;;;;9.99;100.00;95097.94;10383061;28;97167;-83
2022/09/27 05:30:59;;;;;;;2.15;0.95;;;;;;;9.94;100.00;95095.88;10387263;27;97042;-82
2022/09/27 05:36:03;;;;;;;3.00;1.02;;;;;;;9.92;100.00;95097.81;10402671;27;96897;-86
2022/09/27 05:41:06;;;;;;;2.23;0.90;;;;;;;9.91;100.00;95103.22;10416207;27;96976;-86
2022/09/27 05:46:09;;;;;;;5.95;1.50;;;;;;;9.83;100.00;95120.53;10406026;28;97125;-87
2022/09/27 05:51:14;;;;;;;3.47;1.23;;;;;;;9.78;100.00;95117.59;10403128;27;96979;-86
2022/09/27 05:56:17;;;;;;;3.95;1.05;;;;;;;9.86;100.00;95132.44;10416009;27;99079;-87
2022/09/27 06:01:20;;;;;;;1.75;0.80;;;;;;;9.93;100.00;95135.16;10445480;27;100541;-86
2022/09/27 06:06:25;;;;;;;1.85;0.60;;;;;;;9.96;100.00;95130.41;10408453;27;97182;-83
2022/09/27 06:11:28;;;;;;;2.05;0.90;;;;;;;10.04;100.00;95129.56;10423437;27;97176;-83
2022/09/27 06:16:30;;;;;;;3.03;0.73;;;;;;;10.06;100.00;95130.19;10421502;28;97768;-83
2022/09/27 06:21:35;;;;;;;4.68;1.15;;;;;;;10.03;100.00;95141.78;10425275;27;96771;-83
2022/09/27 06:26:38;;;;;;;4.10;1.10;;;;;;;10.02;100.00;95157.63;10425376;28;96823;-83
2022/09/27 06:31:40;;;;;;;1.25;0.85;;;;;;;9.94;100.00;95155.88;10445540;27;97189;-83
2022/09/27 06:36:45;;;;;;;1.85;0.90;;;;;;;9.85;100.00;95157.72;10448053;27;96950;-82
2022/09/27 06:41:56;;;;;;;2.50;1.05;;;;;;;9.79;100.00;95160.19;10424608;27;96785;-83
2022/09/27 06:46:59;;;;;;;5.07;1.00;;;;;;;9.79;100.00;95149.75;10424603;28;96989;-83
2022/09/27 06:52:04;;;;;;;3.97;1.30;;;;;;;9.88;100.00;95155.75;10432032;27;99089;-83
2022/09/27 06:57:07;;;;;;;3.33;1.08;;;;;;;9.86;100.00;95154.09;10424298;28;96931;-83
2022/09/27 07:02:10;;;;;;;3.63;0.77;;;;;;;9.89;100.00;95154.75;10424328;28;96947;-83
2022/09/27 07:07:15;;;;;;;3.28;0.88;;;;;;;9.88;100.00;95174.00;10452206;27;98403;-83
2022/09/27 07:12:22;;;;;;;1.07;0.63;;;;;;;9.95;100.00;95164.50;10432103;27;96670;-83
2022/09/27 07:17:26;;;;;;;1.67;0.68;;;;;;;10.13;100.00;95159.03;10423116;27;96980;-83
2022/09/27 07:22:30;;;;;;;1.35;0.60;;;;;;;10.26;100.00;95181.97;10422106;27;97073;-84
2022/09/27 07:27:33;;;;;;;2.15;0.90;;;;;;;10.29;100.00;95176.38;10422334;27;96995;-83
2022/09/27 07:32:41;;;;;;;2.92;0.90;;;;;;;10.30;100.00;95175.41;10418355;28;96908;-83
2022/09/27 07:37:45;;;;;;;2.25;0.55;;;;;;;10.37;100.00;95168.50;10421843;27;96767;-83
2022/09/27 07:42:49;;;;;;;0.88;0.63;;;;;;;10.56;100.00;95188.94;10418945;28;97098;-83
2022/09/27 07:47:52;;;;;;;2.35;1.00;;;;;;;10.74;100.00;95190.50;10413322;27;96844;-83
2022/09/27 07:52:56;;;;;;;4.78;1.10;;;;;;;10.95;100.00;95198.47;10420246;27;96857;-83
2022/09/27 07:58:03;;;;;;;2.47;0.90;;;;;;;11.14;100.00;95188.53;10420954;27;98684;-83
2022/09/27 08:03:07;;;;;;;3.10;1.02;;;;;;;11.28;100.00;95177.28;10418229;28;97127;-83
2022/09/27 08:08:12;;;;;;;5.07;0.80;;;;;;;11.35;100.00;95172.19;10422281;27;97094;-83
2022/09/27 08:13:16;;;;;;;4.88;1.13;;;;;;;11.57;100.00;95175.72;10421839;28;96747;-83
2022/09/27 08:18:20;;;;;;;3.13;1.02;;;;;;;11.84;100.00;95186.56;10422062;28;97146;-83
2022/09/27 08:23:25;;;;;;;3.33;1.05;;;;;;;11.91;100.00;95190.88;10420565;27;96991;-82
2022/09/27 08:28:29;;;;;;;3.35;1.08;;;;;;;12.00;100.00;95190.78;10421397;28;97283;-83
2022/09/27 08:33:31;;;;;;;2.25;0.80;;;;;;;12.06;100.00;95190.88;10417270;27;97195;-83
2022/09/27 08:38:42;;;;;;;1.52;0.65;;;;;;;12.05;100.00;95191.84;10406308;28;99551;-82
2022/09/27 08:43:54;;;;;;;3.10;1.27;;;;;;;12.02;100.00;95210.53;10396254;28;96889;-83
2022/09/27 08:49:04;;;;;;;4.45;0.90;;;;;;;12.09;100.00;95206.22;10398885;27;96836;-83
2022/09/27 08:54:14;;;;;;;3.25;0.90;;;;;;;12.00;100.00;95219.56;10414756;28;96894;-83
2022/09/27 08:59:20;;;;;;;1.80;0.60;;;;;;;11.81;100.00;95223.53;10420872;28;96874;-83
2022/09/27 09:04:28;;;;;;;2.55;0.65;;;;;;;11.69;100.00;95205.69;10419626;27;97323;-83
2022/09/27 09:09:44;;;;;;;1.17;0.75;;;;;;;11.73;100.00;95204.31;10388952;28;96808;-83
2022/09/27 09:15:07;;;;;;;4.25;0.80;;;;;;;11.73;100.00;95209.56;10420104;28;96771;-83
2022/09/27 09:20:29;;;;;;;2.03;0.82;;;;;;;11.81;100.00;95207.84;10399443;27;97588;-83
2022/09/27 09:25:40;;;;;;;1.95;0.70;;;;;;;12.03;100.00;95203.50;10419230;28;96839;-83
2022/09/27 09:30:50;;;;;;;3.08;0.70;;;;;;;12.29;100.00;95205.63;10418850;28;98152;-83
2022/09/27 09:35:59;;;;;;;2.15;0.73;;;;;;;12.54;100.00;95197.44;10440774;27;96911;-82
2022/09/27 09:41:10;;;;;;;2.00;0.70;;;;;;;12.72;100.00;95195.22;10469049;27;96690;-83
2022/09/27 09:46:18;;;;;;;2.75;0.73;;;;;;;12.86;100.00;95204.81;10429948;27;96979;-83
2022/09/27 09:51:27;;;;;;;2.38;0.68;;;;;;;12.88;100.00;95210.69;10391851;27;97176;-83
2022/09/27 09:56:35;;;;;;;7.38;0.80;;;;;;;12.85;100.00;95211.06;10409432;27;97470;-83
2022/09/27 10:01:42;;;;;;;1.92;0.75;;;;;;;12.82;100.00;95216.69;10409309;28;97172;-83
2022/09/27 10:06:45;;;;;;;3.13;1.20;;;;;;;12.80;100.00;95217.84;10425627;27;96697;-83
2022/09/27 10:11:49;;;;;;;2.42;0.70;;;;;;;12.83;100.00;95210.44;10413660;28;97464;-83
2022/09/27 10:16:57;;;;;;;2.40;0.93;;;;;;;12.91;100.00;95208.72;10384010;27;97268;-83
2022/09/27 10:22:03;;;;;;;3.50;0.90;;;;;;;13.04;100.00;95208.84;10406490;27;97197;-83
2022/09/27 10:27:07;;;;;;;3.17;0.77;;;;;;;12.96;100.00;95217.66;10406279;27;96865;-83
2022/09/27 10:32:23;;;;;;;5.60;1.10;;;;;;;12.98;100.00;95204.38;10394182;27;97527;-83
2022/09/27 10:37:26;;;;;;;3.92;1.23;;;;;;;13.11;100.00;95209.72;10396694;27;99481;-83
2022/09/27 10:42:35;;;;;;;3.45;0.98;;;;;;;13.19;100.00;95214.81;10407825;27;97284;-83
2022/09/27 10:47:38;;;;;;;1.73;0.85;;;;;;;13.14;100.00;95211.97;10418792;27;96982;-83
2022/09/27 10:52:41;;;;;;;3.78;0.70;;;;;;;13.00;100.00;95207.59;10412116;27;98509;-83
2022/09/27 10:57:49;;;;;;;1.55;0.60;;;;;;;12.71;100.00;95209.31;10405693;27;99442;-83
2022/09/27 11:02:55;;;;;;;2.55;0.80;;;;;;;12.56;100.00;95224.25;10396475;28;97269;-83
2022/09/27 11:08:01;;;;;;;2.75;0.90;;;;;;;12.49;100.00;95234.66;10402380;27;96836;-83
2022/09/27 11:13:13;;;;;;;2.78;1.00;;;;;;;12.42;100.00;95225.91;10421520;28;96817;-83
2022/09/27 11:18:27;;;;;;;2.40;0.95;;;;;;;12.50;100.00;95231.84;10416925;27;97634;-83
2022/09/27 11:23:43;;;;;;;2.08;0.90;;;;;;;12.58;100.00;95233.56;10402313;28;97087;-83
2022/09/27 11:28:56;;;;;;;2.50;0.55;;;;;;;12.69;100.00;95227.03;10423382;28;97334;-83
2022/09/27 11:34:16;;;;;;;2.15;0.60;;;;;;;12.68;100.00;95230.63;10424053;27;96894;-83
2022/09/27 11:39:23;;;;;;;1.30;0.47;;;;;;;12.66;100.00;95241.28;10439164;27;97319;-83
2022/09/27 11:44:49;;;;;;;1.65;0.60;;;;;;;12.65;100.00;95257.22;10408811;28;97129;-83
2022/09/27 11:50:30;;;;;;;2.65;0.70;;;;;;;12.55;100.00;95273.22;10408937;27;97060;-83
2022/09/27 11:55:45;;;;;;;1.20;0.40;;;;;;;12.57;100.00;95275.66;10415565;27;96945;-83
2022/09/27 12:01:06;;;;;;;2.50;0.70;;;;;;;12.52;100.00;95264.94;10409739;28;96909;-83
2022/09/27 12:06:13;;;;;;;2.88;0.70;;;;;;;12.36;100.00;95248.41;10381597;27;97276;-83
2022/09/27 12:11:23;;;;;;;1.27;0.30;;;;;;;12.42;100.00;95245.09;10404413;28;96812;-83
2022/09/27 12:16:30;;;;;;;1.48;0.70;;;;;;;12.58;100.00;95235.34;10421976;28;97211;-83
2022/09/27 12:21:33;;;;;;;1.90;0.43;;;;;;;12.62;100.00;95220.91;10421771;27;96822;-83
2022/09/27 12:26:39;;;;;;;1.23;0.40;;;;;;;12.62;100.00;95205.19;10421418;28;97063;-83
2022/09/27 12:31:50;;;;;;;2.00;0.75;;;;;;;12.55;100.00;95214.78;10421797;27;96729;-83
2022/09/27 12:37:00;;;;;;;3.33;0.60;;;;;;;12.47;100.00;95206.06;10407997;27;97123;-83
2022/09/27 12:42:12;;;;;;;2.15;0.57;;;;;;;12.35;100.00;95202.25;10421021;28;96688;-83
2022/09/27 12:47:30;;;;;;;3.70;0.73;;;;;;;12.41;100.00;95204.16;10415961;28;96737;-83
2022/09/27 13:06:14;;;;;;;1.13;0.55;;;;;;;12.44;100.00;95235.22;10251434;28;97115;-84
2022/09/27 13:18:11;;;;;;;2.53;0.55;;;;;;;12.76;100.00;95222.66;9942758;29;97078;-83
2022/09/27 13:23:58;;;;;;;2.45;0.70;;;;;;;13.02;100.00;95216.09;9906907;29;97022;-84
2022/09/27 13:29:03;;;;;;;3.13;0.75;;;;;;;13.18;100.00;95215.81;9905447;29;97104;-83
2022/09/27 13:34:48;;;;;;;3.70;0.57;;;;;;;13.31;100.00;95211.69;9951389;29;96888;-84
2022/09/27 13:46:19;;;;;;;1.55;0.50;;;;;;;13.43;100.00;95202.31;10082659;28;97561;-83
2022/09/27 13:51:43;;;;;;;2.47;0.50;;;;;;;13.37;100.00;95192.56;10193730;28;96992;-83
2022/09/27 13:56:56;;;;;;;2.03;0.82;;;;;;;13.30;100.00;95192.50;10418978;28;97308;-83
2022/09/27 14:02:13;;;;;;;3.28;1.15;;;;;;;13.34;100.00;95192.94;10424787;27;96766;-83
2022/09/27 14:07:26;;;;;;;2.60;0.65;;;;;;;13.54;100.00;95185.22;10422685;27;97542;-83
2022/09/27 14:12:33;;;;;;;1.73;0.50;;;;;;;13.70;100.00;95186.72;10425825;27;97107;-83
2022/09/27 14:17:44;;;;;;;2.95;0.47;;;;;;;13.82;100.00;95180.72;10425692;28;96754;-83
2022/09/27 14:22:54;;;;;;;2.88;0.65;;;;;;;13.95;100.00;95180.00;10424333;28;96810;-83
2022/09/27 14:27:59;;;;;;;2.22;0.68;;;;;;;14.17;100.00;95187.78;10425724;28;96864;-83
2022/09/27 14:33:02;;;;;;;2.15;0.70;;;;;;;14.29;100.00;95175.69;10422516;27;96890;-83
2022/09/27 14:38:09;;;;;;;1.92;0.52;;;;;;;14.09;100.00;95169.53;10424757;27;96788;-83
2022/09/27 14:43:33;;;;;;;3.38;0.95;;;;;;;13.76;100.00;95191.22;10425387;27;96847;-83
2022/09/27 14:48:37;;;;;;;4.68;0.93;;;;;;;13.51;100.00;95182.97;10424961;28;97045;-83
2022/09/27 14:53:46;;;;;;;4.53;1.10;;;;;;;13.36;100.00;95185.69;10424114;28;96800;-83
2022/09/27 14:58:55;;;;;;;3.15;0.80;;;;;;;13.31;100.00;95188.06;10424146;28;96787;-83
2022/09/27 15:04:06;;;;;;;3.78;0.65;;;;;;;13.04;100.00;95185.25;10417435;27;97881;-84
2022/09/27 15:09:13;;;;;;;2.50;0.70;;;;;;;12.97;100.00;95189.63;10436617;27;97729;-83
2022/09/27 15:14:20;;;;;;;3.65;0.77;;;;;;;12.99;100.00;95195.47;10444767;27;98036;-83
2022/09/27 15:19:25;;;;;;;3.53;0.65;;;;;;;12.72;100.00;95184.75;10429812;27;98045;-83
2022/09/27 15:24:43;;;;;;;4.15;0.70;;;;;;;12.32;100.00;95202.66;10422086;27;96823;-82
2022/09/27 15:29:50;;;;;;;1.73;0.50;;;;;;;12.19;100.00;95197.25;10416820;27;96729;-83
2022/09/27 15:34:53;;;;;;;3.25;0.60;;;;;;;11.98;100.00;95192.78;10412938;27;97046;-82
2022/09/27 15:40:28;;;;;;;2.10;0.60;;;;;;;11.81;100.00;95197.38;10422616;27;97058;-83
2022/09/27 15:45:33;;;;;;;1.30;0.50;;;;;;;11.77;100.00;95201.34;10403085;28;96891;-83
2022/09/27 15:50:38;;;;;;;1.55;0.68;;;;;;;11.69;100.00;95199.63;10406888;28;97097;-83
2022/09/27 15:55:44;;;;;;;3.27;1.10;;;;;;;11.65;100.00;95204.41;10396648;28;96744;-82
2022/09/27 16:00:54;;;;;;;4.10;1.25;;;;;;;11.65;100.00;95200.97;10421531;28;97144;-83
2022/09/27 16:05:58;;;;;;;1.88;0.70;;;;;;;11.57;100.00;95207.09;10421980;27;96741;-83
2022/09/27 16:11:04;;;;;;;2.27;1.13;;;;;;;11.59;100.00;95218.22;10399773;27;97362;-83
2022/09/27 16:16:14;;;;;;;3.75;1.30;;;;;;;11.61;100.00;95228.50;10380131;28;96782;-83
2022/09/27 16:21:17;;;;;;;3.17;1.25;;;;;;;11.57;100.00;95238.47;10419986;27;96852;-83
2022/09/27 16:26:21;;;;;;;3.72;1.35;;;;;;;11.56;100.00;95242.09;10460362;27;97137;-83
2022/09/27 16:31:24;;;;;;;8.03;1.40;;;;;;;11.58;100.00;95244.53;10419150;27;96950;-83
2022/09/27 16:36:27;;;;;;;3.97;1.38;;;;;;;11.58;100.00;95237.50;10459720;27;97024;-83
2022/09/27 16:41:32;;;;;;;3.38;1.38;;;;;;;11.54;100.00;95233.63;10435257;27;99875;-83
2022/09/27 16:46:34;;;;;;;;;;;;;;;11.28;100.00;95229.56;10393109;28;97181;-83
2022/09/27 16:57:00;;;;;;;4.07;1.10;;;;;;;11.17;100.00;95230.81;10391921;27;96918;-83
2022/09/27 17:02:04;;;;;;;3.23;1.10;;;;;;;11.15;100.00;95235.38;10395156;27;97097;-82
2022/09/27 17:07:07;;;;;;;3.10;0.93;;;;;;;11.09;100.00;95246.56;10383357;27;97512;-83
2022/09/27 17:12:11;;;;;;;3.85;1.02;;;;;;;10.99;100.00;95231.09;10397747;27;99594;-84
2022/09/27 17:17:13;;;;;;;2.40;1.17;;;;;;;10.96;100.00;95231.47;10417138;28;96811;-83
2022/09/27 17:22:17;;;;;;;2.65;0.90;;;;;;;10.94;100.00;95241.25;10411879;27;98586;-83
2022/09/27 17:27:22;;;;;;;96.28;65.75;;;;;;;10.87;100.00;95232.50;10406490;27;97578;-84
2022/09/27 17:32:27;;;;;;;33.20;21.80;;;;;;;10.90;100.00;95240.00;10382663;27;96946;-83
2022/09/27 17:37:30;;;;;;;5.80;2.70;;;;;;;10.95;100.00;95248.13;10384527;28;96951;-84
2022/09/27 17:42:36;;;;;;;21.90;10.73;;;;;;;10.94;100.00;95243.88;10440116;27;96846;-84
2022/09/27 17:52:59;;;;;;;5.13;2.97;;;;;;;10.79;100.00;95235.16;10417053;27;96848;-83
2022/09/27 17:58:04;;;;;;;3.55;2.13;;;;;;;10.76;100.00;95238.94;10451020;27;98620;-82
2022/09/27 18:03:07;;;;;;;4.90;1.45;;;;;;;10.73;100.00;95239.28;10384268;28;96749;-83
2022/09/27 18:08:09;;;;;;;4.78;1.23;;;;;;;10.74;100.00;95247.97;10427184;27;97165;-83
2022/09/27 18:13:13;;;;;;;2.00;1.00;;;;;;;10.70;100.00;95257.91;10431766;27;96967;-83
2022/09/27 18:18:17;;;;;;;6.60;2.10;;;;;;;10.72;100.00;95250.75;10425641;28;96787;-83
2022/09/27 18:23:20;;;;;;;5.60;1.70;;;;;;;10.75;100.00;95255.59;10433192;27;97175;-83
2022/09/27 18:28:28;;;;;;;2.45;1.00;;;;;;;10.73;100.00;95244.50;10411903;27;97148;-82
2022/09/27 18:33:31;;;;;;;2.47;1.30;;;;;;;10.64;100.00;95236.91;10418345;27;97234;-83
2022/09/27 18:38:35;;;;;;;4.03;1.08;;;;;;;10.57;100.00;95248.03;10424185;27;97139;-83
2022/09/27 18:43:40;;;;;;;3.85;1.52;;;;;;;10.51;100.00;95259.19;10431845;27;96770;-83
2022/09/27 18:48:43;;;;;;;5.75;1.10;;;;;;;10.49;100.00;95266.34;10439510;27;97044;-83
2022/09/27 18:53:46;;;;;;;5.80;1.30;;;;;;;10.49;100.00;95255.91;10437041;27;97152;-83
2022/09/27 18:58:51;;;;;;;3.25;1.20;;;;;;;10.45;100.00;95265.09;10429485;27;97232;-83
2022/09/27 19:03:53;;;;;;;2.57;1.27;;;;;;;10.40;100.00;95262.16;10465451;27;97024;-83
2022/09/27 19:08:57;;;;;;;5.55;1.55;;;;;;;10.34;100.00;95263.66;10427741;27;97148;-83
2022/09/27 19:14:03;;;;;;;3.70;1.90;;;;;;;10.40;100.00;95262.16;10417191;28;96962;-83
2022/09/27 19:19:06;;;;;;;7.65;2.95;;;;;;;10.47;100.00;95263.09;10429672;27;98524;-83
2022/09/27 19:24:09;;;;;;;2.47;1.60;;;;;;;10.51;100.00;95274.84;10434225;27;96717;-83
2022/09/27 19:29:13;;;;;;;5.22;1.70;;;;;;;10.49;100.00;95266.34;10412449;27;97044;-82
2022/09/27 19:34:16;;;;;;;3.67;2.35;;;;;;;10.50;100.00;95262.78;10397332;27;97280;-83
2022/09/27 19:39:19;;;;;;;6.10;1.60;;;;;;;10.52;100.00;95271.25;10410891;27;97658;-83
2022/09/27 19:44:24;;;;;;;6.75;1.85;;;;;;;10.52;100.00;95267.81;10409342;27;96834;-84
2022/09/27 19:49:27;;;;;;;4.00;1.40;;;;;;;10.55;100.00;95265.69;10403765;27;97408;-83
2022/09/27 19:54:30;;;;;;;4.90;1.30;;;;;;;10.56;100.00;95254.22;10385963;28;96977;-83
2022/09/27 19:59:34;;;;;;;4.88;1.95;;;;;;;10.57;100.00;95261.09;10408433;27;99167;-83
2022/09/27 20:04:37;;;;;;;4.47;1.25;;;;;;;10.55;100.00;95268.28;10413502;27;96968;-83
2022/09/27 20:09:40;;;;;;;5.40;1.38;;;;;;;10.54;100.00;95266.66;10416012;27;96905;-84
2022/09/27 20:14:45;;;;;;;4.40;1.42;;;;;;;10.52;100.00;95265.22;10432981;27;96887;-83
2022/09/27 20:19:48;;;;;;;2.47;1.50;;;;;;;10.49;100.00;95249.88;10386015;27;96828;-84
2022/09/27 20:24:50;;;;;;;3.50;1.40;;;;;;;10.46;100.00;95269.34;10378276;28;97442;-83
2022/09/27 20:29:56;;;;;;;6.70;1.88;;;;;;;10.42;100.00;95262.81;10388181;27;100557;-83
2022/09/27 20:34:58;;;;;;;7.15;1.90;;;;;;;10.41;100.00;95269.03;10418032;27;97087;-84
2022/09/27 20:40:06;;;;;;;7.22;1.88;;;;;;;10.42;100.00;95249.75;10397147;27;96968;-83
2022/09/27 20:45:11;;;;;;;6.55;2.17;;;;;;;10.46;100.00;95250.22;10431579;27;97318;-84
2022/09/27 20:50:14;;;;;;;5.00;1.57;;;;;;;10.50;100.00;95247.09;10414425;27;97667;-84
2022/09/27 20:55:17;;;;;;;3.58;1.42;;;;;;;10.46;100.00;95256.28;10411892;27;96964;-84
2022/09/27 21:00:21;;;;;;;4.30;1.80;;;;;;;10.42;100.00;95244.53;10404231;28;96704;-84
2022/09/27 21:05:23;;;;;;;4.38;2.08;;;;;;;10.36;100.00;95240.00;10429409;27;96830;-84
2022/09/27 21:10:26;;;;;;;5.15;1.90;;;;;;;10.28;100.00;95226.97;10382336;28;97320;-83
2022/09/27 21:15:32;;;;;;;6.00;1.90;;;;;;;10.24;100.00;95221.28;10396758;27;96951;-84
2022/09/27 21:20:35;;;;;;;6.10;1.92;;;;;;;10.17;100.00;95220.34;10398368;27;97425;-84
2022/09/27 21:25:38;;;;;;;8.20;2.60;;;;;;;10.13;100.00;95219.88;10399627;28;97955;-84
2022/09/27 21:30:42;;;;;;;6.90;2.30;;;;;;;10.08;100.00;95216.13;10415689;27;96873;-83
2022/09/27 21:35:49;;;;;;;7.13;3.47;;;;;;;10.12;100.00;95201.78;10412702;28;97539;-83
2022/09/27 21:40:57;;;;;;;4.22;2.13;;;;;;;10.09;100.00;95199.50;10409174;27;98601;-83
2022/09/27 21:46:06;;;;;;;6.55;2.63;;;;;;;10.05;100.00;95196.44;10407734;28;99595;-83
2022/09/27 21:51:11;;;;;;;4.78;2.03;;;;;;;10.04;100.00;95197.41;10401139;27;97636;-83
2022/09/27 21:56:13;;;;;;;4.40;2.13;;;;;;;9.99;100.00;95197.09;10395689;28;99050;-83
2022/09/27 22:01:20;;;;;;;7.28;2.38;;;;;;;9.98;100.00;95193.69;10411578;27;97304;-83
2022/09/27 22:06:25;;;;;;;3.63;2.03;;;;;;;10.02;100.00;95183.72;10421178;27;97603;-83
2022/09/27 22:11:29;;;;;;;5.83;2.40;;;;;;;10.09;100.00;95182.03;10425570;27;96919;-82
2022/09/27 22:16:34;;;;;;;3.63;2.00;;;;;;;10.12;100.00;95179.09;10426065;27;97054;-82
2022/09/27 22:21:38;;;;;;;4.57;1.97;;;;;;;10.12;100.00;95160.84;10446787;27;96929;-82
2022/09/27 22:26:42;;;;;;;4.93;2.60;;;;;;;10.13;100.00;95159.03;10424477;27;97422;-82
2022/09/27 22:31:46;;;;;;;5.28;2.22;;;;;;;10.13;100.00;95146.81;10425267;27;96802;-82
2022/09/27 22:36:52;;;;;;;3.07;1.80;;;;;;;10.16;100.00;95141.22;10404143;27;98086;-82
2022/09/27 22:41:55;;;;;;;5.28;2.03;;;;;;;10.12;100.00;95133.94;10422748;27;97009;-82
2022/09/27 22:47:00;;;;;;;5.20;1.98;;;;;;;10.06;100.00;95138.03;10424482;27;96633;-82
2022/09/27 22:52:02;;;;;;;7.70;2.47;;;;;;;9.98;100.00;95123.22;10449960;27;96785;-82
2022/09/27 22:57:05;;;;;;;6.10;2.35;;;;;;;9.92;100.00;95107.44;10446081;27;97248;-82
2022/09/27 23:02:09;;;;;;;5.05;2.22;;;;;;;9.96;100.00;95101.72;10422892;27;96711;-82
2022/09/27 23:07:12;;;;;;;6.72;2.10;;;;;;;9.96;100.00;95087.88;10415114;27;97178;-82
2022/09/27 23:12:15;;;;;;;5.35;2.13;;;;;;;9.99;100.00;95077.06;10391827;27;96845;-82
2022/09/27 23:17:19;;;;;;;3.78;2.08;;;;;;;10.03;100.00;95067.94;10381045;28;97040;-82
2022/09/27 23:22:22;;;;;;;6.90;2.03;;;;;;;10.08;100.00;95044.75;10410660;27;96946;-82
2022/09/27 23:32:54;;;;;;;;;;;;;;;9.99;100.00;95040.53;10444320;27;97166;-82
2022/09/27 23:38:00;;;;;;;5.60;2.10;;;;;;;9.98;100.00;95033.72;10443516;27;96801;-82
2022/09/27 23:43:03;;;;;;;4.45;1.73;;;;;;;10.01;100.00;95021.13;10386954;27;96861;-82
2022/09/27 23:48:07;;;;;;;4.78;1.70;;;;;;;10.05;100.00;95021.59;10401218;27;98363;-82
2022/09/27 23:53:10;;;;;;;5.68;1.52;;;;;;;10.07;100.00;95017.00;10411128;27;97224;-82
2022/09/27 23:58:13;;;;;;;6.53;2.17;;;;;;;10.07;100.00;95005.78;10396397;27;97337;-82
